createdAt,value
2022-10-25T00:00:43.998Z,62.54
2022-10-25T00:03:13.016Z,62.77
2022-10-25T00:05:41.346Z,63.14
2022-10-25T00:08:09.450Z,62.92
2022-10-25T00:10:37.682Z,62.75
2022-10-25T00:13:06.223Z,63.32
2022-10-25T00:15:33.788Z,63.08
2022-10-25T00:18:01.238Z,63.47
2022-10-25T00:20:28.843Z,63.38
2022-10-25T00:30:21.685Z,63.10
2022-10-25T00:32:52.915Z,63.28
2022-10-25T00:40:25.231Z,64.16
2022-10-25T00:43:53.575Z,64.15
2022-10-25T00:46:58.647Z,63.40
2022-10-25T00:49:26.233Z,64.06
2022-10-25T00:52:01.150Z,64.45
2022-10-25T00:54:33.786Z,64.32
2022-10-25T00:57:11.657Z,64.42
2022-10-25T00:59:39.771Z,64.55
2022-10-25T01:02:07.587Z,64.39
2022-10-25T01:04:35.343Z,64.44
2022-10-25T01:07:03.941Z,64.20
2022-10-25T01:09:34.572Z,64.30
2022-10-25T01:12:39.229Z,64.40
2022-10-25T01:15:07.358Z,64.18
2022-10-25T01:18:02.247Z,64.95
2022-10-25T01:20:51.325Z,64.67
2022-10-25T01:23:28.288Z,65.07
2022-10-25T01:26:10.800Z,65.40
2022-10-25T01:29:18.468Z,65.25
2022-10-25T01:31:50.838Z,64.92
2022-10-25T01:34:36.050Z,64.83
2022-10-25T01:37:21.815Z,65.29
2022-10-25T01:40:03.174Z,65.20
2022-10-25T01:42:45.627Z,64.87
2022-10-25T01:45:21.476Z,64.38
2022-10-25T01:48:30.998Z,65.05
2022-10-25T01:51:06.111Z,64.82
2022-10-25T01:53:33.678Z,64.31
2022-10-25T01:56:04.324Z,64.66
2022-10-25T01:59:00.528Z,65.35
2022-10-25T02:01:46.264Z,64.77
2022-10-25T02:05:12.575Z,65.20
2022-10-25T02:07:51.426Z,65.17
2022-10-25T02:10:42.311Z,65.37
2022-10-25T02:13:47.873Z,65.63
2022-10-25T02:16:22.333Z,64.82
2022-10-25T02:18:54.116Z,64.91
2022-10-25T02:21:24.665Z,64.86
2022-10-25T02:23:54.082Z,65.02
2022-10-25T02:26:22.389Z,64.80
2022-10-25T02:28:51.024Z,65.06
2022-10-25T02:31:21.724Z,65.06
2022-10-25T02:33:49.523Z,64.77
2022-10-25T02:36:22.475Z,64.89
2022-10-25T02:38:51.913Z,64.84
2022-10-25T02:41:22.735Z,64.98
2022-10-25T02:43:50.338Z,65.09
2022-10-25T02:46:21.016Z,65.36
2022-10-25T02:48:49.571Z,65.13
2022-10-25T02:51:18.592Z,65.52
2022-10-25T02:53:46.065Z,65.43
2022-10-25T02:56:19.549Z,65.76
2022-10-25T02:58:48.652Z,65.69
2022-10-25T03:01:17.806Z,65.51
2022-10-25T03:03:46.015Z,65.77
2022-10-25T03:06:14.091Z,65.79
2022-10-25T03:08:42.968Z,65.87
2022-10-25T03:11:57.527Z,66.40
2022-10-25T03:14:28.074Z,65.86
2022-10-25T03:17:07.133Z,66.27
2022-10-25T03:19:34.547Z,65.97
2022-10-25T03:26:45.831Z,66.46
2022-10-25T03:30:17.568Z,66.64
2022-10-25T03:32:45.101Z,65.90
2022-10-25T03:35:12.633Z,66.20
2022-10-25T03:37:40.194Z,66.41
2022-10-25T03:40:08.158Z,66.16
2022-10-25T03:42:35.699Z,66.77
2022-10-25T03:45:03.846Z,66.50
2022-10-25T03:47:31.511Z,66.55
2022-10-25T03:49:58.991Z,66.50
2022-10-25T03:52:26.490Z,66.88
2022-10-25T03:54:54.014Z,66.69
2022-10-25T03:57:25.128Z,66.88
2022-10-25T03:59:53.429Z,66.87
2022-10-25T04:02:20.889Z,66.51
2022-10-25T04:04:48.420Z,66.75
2022-10-25T04:07:15.860Z,66.54
2022-10-25T04:09:43.383Z,66.62
2022-10-25T04:12:11.697Z,66.18
2022-10-25T04:14:39.242Z,66.54
2022-10-25T04:17:06.869Z,66.58
2022-10-25T04:19:34.353Z,66.47
2022-10-25T04:22:07.428Z,66.56
2022-10-25T04:24:35.032Z,66.60
2022-10-25T04:27:02.510Z,66.69
2022-10-25T04:29:30.066Z,66.47
2022-10-25T04:31:57.622Z,66.42
2022-10-25T04:34:25.160Z,66.20
2022-10-25T04:36:52.596Z,66.25
2022-10-25T04:39:20.193Z,66.27
2022-10-25T04:41:47.661Z,66.44
2022-10-25T04:48:41.665Z,66.26
2022-10-25T04:52:05.189Z,66.28
2022-10-25T04:55:37.562Z,66.20
2022-10-25T05:06:59.145Z,65.71
2022-10-25T05:21:13.544Z,64.46
2022-10-25T05:23:41.888Z,63.96
2022-10-25T05:26:15.231Z,64.30
2022-10-25T05:28:44.851Z,63.75
2022-10-25T05:31:17.992Z,63.34
2022-10-25T05:33:46.259Z,63.14
2022-10-25T05:36:14.488Z,63.01
2022-10-25T05:38:42.147Z,62.45
2022-10-25T05:41:12.108Z,62.02
2022-10-25T05:43:40.111Z,61.06
2022-10-25T05:46:10.697Z,60.76
2022-10-25T05:48:38.638Z,60.11
2022-10-25T05:54:26.478Z,59.47
2022-10-25T05:56:54.034Z,59.09
2022-10-25T05:59:23.910Z,58.57
2022-10-25T06:01:51.670Z,57.95
2022-10-25T06:04:19.227Z,57.78
2022-10-25T06:06:47.689Z,57.03
2022-10-25T06:09:15.198Z,56.89
2022-10-25T06:11:42.787Z,56.31
2022-10-25T06:26:26.679Z,49.36
2022-10-25T06:44:59.305Z,47.43
2022-10-25T06:53:19.426Z,46.71
2022-10-25T07:00:25.823Z,46.10
2022-10-25T07:03:00.436Z,46.10
2022-10-25T07:05:28.037Z,47.47
2022-10-25T07:07:55.930Z,47.38
2022-10-25T07:10:23.546Z,47.14
2022-10-25T07:12:51.027Z,46.55
2022-10-25T07:17:47.294Z,45.85
2022-10-25T07:20:15.059Z,45.94
2022-10-25T07:22:42.532Z,45.13
2022-10-25T07:25:10.190Z,43.89
2022-10-25T07:27:37.760Z,43.33
2022-10-25T07:30:05.603Z,42.77
2022-10-25T07:32:33.106Z,42.25
2022-10-25T07:35:00.723Z,42.04
2022-10-25T07:37:28.282Z,42.48
2022-10-25T07:39:55.795Z,42.14
2022-10-25T07:42:23.240Z,41.83
2022-10-25T07:44:50.794Z,41.55
2022-10-25T07:47:18.230Z,41.16
2022-10-25T07:49:45.667Z,40.29
2022-10-25T07:52:14.069Z,39.78
2022-10-25T07:54:41.497Z,38.96
2022-10-25T07:57:09.960Z,38.17
2022-10-25T07:59:37.388Z,37.40
2022-10-25T08:02:04.894Z,37.58
2022-10-25T08:04:33.208Z,37.47
2022-10-25T08:07:03.288Z,36.85
2022-10-25T08:09:38.257Z,36.51
2022-10-25T08:12:06.360Z,36.39
2022-10-25T08:14:39.671Z,35.07
2022-10-25T08:17:11.629Z,34.55
2022-10-25T08:19:39.151Z,33.63
2022-10-25T08:22:06.577Z,32.83
2022-10-25T08:24:38.792Z,32.00
2022-10-25T08:27:06.584Z,30.60
2022-10-25T08:29:33.996Z,28.90
2022-10-25T08:32:03.924Z,27.95
2022-10-25T08:34:33.205Z,26.87
2022-10-25T08:37:00.851Z,25.67
2022-10-25T08:39:30.934Z,25.15
2022-10-25T08:42:00.769Z,24.27
2022-10-25T08:44:43.967Z,23.16
2022-10-25T08:47:34.087Z,22.82
2022-10-25T08:50:19.545Z,21.30
2022-10-25T08:52:53.788Z,20.87
2022-10-25T08:55:41.687Z,20.53
2022-10-25T08:58:29.768Z,20.40
2022-10-25T09:01:01.558Z,20.02
2022-10-25T09:03:29.344Z,20.26
2022-10-25T09:06:24.295Z,20.05
2022-10-25T09:09:27.037Z,20.35
2022-10-25T09:12:17.315Z,18.30
2022-10-25T09:14:59.168Z,18.52
2022-10-25T09:17:38.860Z,18.41
2022-10-25T09:20:21.822Z,17.56
2022-10-25T09:22:54.529Z,17.77
2022-10-25T09:25:30.752Z,17.75
2022-10-25T09:28:07.305Z,16.72
2022-10-25T09:30:40.775Z,16.84
2022-10-25T09:33:13.806Z,16.73
2022-10-25T09:35:45.541Z,16.69
2022-10-25T09:38:31.667Z,16.76
2022-10-25T09:41:26.264Z,16.77
2022-10-25T09:44:06.879Z,16.79
2022-10-25T09:46:43.223Z,16.39
2022-10-25T09:49:10.682Z,18.46
2022-10-25T09:52:19.506Z,17.60
2022-10-25T09:54:54.522Z,16.81
2022-10-25T09:57:22.183Z,17.44
2022-10-25T09:59:51.608Z,17.56
2022-10-25T10:02:25.323Z,17.46
2022-10-25T10:04:54.038Z,18.01
2022-10-25T10:07:36.029Z,18.07
2022-10-25T10:10:10.009Z,17.84
2022-10-25T10:13:13.019Z,18.36
2022-10-25T10:15:57.072Z,19.31
2022-10-25T10:18:29.783Z,19.48
2022-10-25T10:21:28.290Z,20.46
2022-10-25T10:24:02.697Z,20.59
2022-10-25T10:26:51.670Z,21.54
2022-10-25T10:29:24.632Z,21.86
2022-10-25T10:32:05.269Z,22.05
2022-10-25T10:34:39.910Z,22.46
2022-10-25T10:37:13.498Z,22.87
2022-10-25T10:40:08.278Z,23.87
2022-10-25T10:42:42.938Z,23.53
2022-10-25T10:45:18.430Z,23.39
2022-10-25T10:47:56.756Z,23.27
2022-10-25T10:50:32.010Z,23.26
2022-10-25T10:53:22.361Z,23.29
2022-10-25T10:55:52.646Z,22.93
2022-10-25T10:58:24.731Z,22.71
2022-10-25T11:01:09.340Z,22.44
2022-10-25T11:03:45.043Z,21.76
2022-10-25T11:06:50.783Z,22.12
2022-10-25T11:09:25.595Z,22.36
2022-10-25T11:12:07.757Z,22.42
2022-10-25T11:14:35.443Z,22.01
2022-10-25T11:17:17.132Z,21.17
2022-10-25T11:19:59.644Z,20.45
2022-10-25T11:22:50.429Z,19.35
2022-10-25T11:25:26.829Z,18.88
2022-10-25T11:28:16.235Z,18.26
2022-10-25T11:30:49.766Z,17.72
2022-10-25T11:33:45.304Z,17.46
2022-10-25T11:36:35.417Z,17.79
2022-10-25T11:39:12.941Z,19.12
2022-10-25T11:41:53.576Z,19.06
2022-10-25T11:44:36.441Z,19.31
2022-10-25T11:47:18.525Z,18.33
2022-10-25T11:50:15.182Z,18.42
2022-10-25T11:53:10.267Z,20.31
2022-10-25T11:56:03.997Z,22.53
2022-10-25T11:59:23.407Z,24.43
2022-10-25T12:02:21.552Z,25.91
2022-10-25T12:04:49.105Z,26.88
2022-10-25T12:07:25.301Z,28.90
2022-10-25T12:10:26.042Z,29.78
2022-10-25T12:13:12.120Z,30.45
2022-10-25T12:15:43.539Z,30.69
2022-10-25T12:18:16.586Z,31.37
2022-10-25T12:20:47.295Z,31.41
2022-10-25T12:23:19.029Z,32.19
2022-10-25T12:26:13.803Z,33.55
2022-10-25T12:28:46.675Z,33.65
2022-10-25T12:31:29.841Z,34.39
2022-10-25T12:34:14.586Z,33.70
2022-10-25T12:36:46.069Z,34.45
2022-10-25T12:39:18.414Z,34.77
2022-10-25T12:41:53.146Z,35.77
2022-10-25T12:44:29.453Z,35.24
2022-10-25T12:47:08.872Z,36.73
2022-10-25T12:50:02.519Z,35.86
2022-10-25T12:52:59.745Z,36.87
2022-10-25T12:55:36.182Z,36.80
2022-10-25T12:58:26.324Z,37.89
2022-10-25T13:01:18.798Z,37.60
2022-10-25T13:04:08.046Z,36.91
2022-10-25T13:06:44.312Z,37.50
2022-10-25T13:09:15.548Z,37.12
2022-10-25T13:11:48.983Z,37.31
2022-10-25T13:14:27.542Z,37.81
2022-10-25T13:17:16.758Z,37.85
2022-10-25T13:20:00.798Z,37.64
2022-10-25T13:22:35.652Z,37.68
2022-10-25T13:25:12.986Z,38.67
2022-10-25T13:28:26.559Z,38.41
2022-10-25T13:31:28.940Z,38.67
2022-10-25T13:34:28.704Z,39.41
2022-10-25T13:37:01.279Z,39.51
2022-10-25T13:39:33.388Z,39.53
2022-10-25T13:42:26.341Z,40.11
2022-10-25T13:44:56.923Z,39.99
2022-10-25T13:47:46.737Z,40.92
2022-10-25T13:50:29.199Z,41.05
2022-10-25T13:53:31.331Z,41.28
2022-10-25T13:56:04.543Z,40.39
2022-10-25T13:58:48.147Z,41.98
2022-10-25T14:01:15.719Z,40.57
2022-10-25T14:03:50.199Z,41.52
2022-10-25T14:06:29.420Z,42.88
2022-10-25T14:09:09.534Z,44.17
2022-10-25T14:11:55.808Z,45.16
2022-10-25T14:14:33.569Z,45.99
2022-10-25T14:17:11.910Z,46.44
2022-10-25T14:19:47.488Z,47.13
2022-10-25T14:22:36.486Z,46.53
2022-10-25T14:25:20.854Z,48.00
2022-10-25T14:27:48.898Z,46.89
2022-10-25T14:30:27.238Z,48.88
2022-10-25T14:33:03.894Z,48.27
2022-10-25T14:35:37.237Z,49.17
2022-10-25T14:38:16.367Z,50.42
2022-10-25T14:40:59.701Z,50.94
2022-10-25T14:43:35.822Z,51.01
2022-10-25T14:46:14.328Z,49.54
2022-10-25T14:48:47.005Z,50.73
2022-10-25T14:51:25.744Z,51.59
2022-10-25T14:53:57.811Z,50.83
2022-10-25T14:56:36.598Z,52.07
2022-10-25T14:59:07.942Z,50.75
2022-10-25T15:01:36.112Z,50.59
2022-10-25T15:04:03.809Z,50.64
2022-10-25T15:06:32.704Z,50.95
2022-10-25T15:09:40.634Z,51.97
2022-10-25T15:12:04.581Z,53.48
2022-10-25T15:14:32.791Z,51.46
2022-10-25T15:17:14.987Z,53.43
2022-10-25T15:22:43.613Z,53.60
2022-10-25T15:25:23.102Z,53.59
2022-10-25T15:27:52.418Z,52.50
2022-10-25T15:30:59.211Z,54.05
2022-10-25T15:33:31.932Z,53.95
2022-10-25T15:36:01.836Z,52.87
2022-10-25T15:39:06.199Z,53.38
2022-10-25T15:41:28.176Z,52.91
2022-10-25T15:43:55.712Z,53.47
2022-10-25T15:46:33.476Z,54.21
2022-10-25T15:49:04.475Z,53.54
2022-10-25T15:51:39.280Z,54.28
2022-10-25T15:54:21.826Z,54.87
2022-10-25T15:56:50.582Z,53.57
2022-10-25T15:59:18.208Z,53.60
2022-10-25T16:01:49.140Z,54.35
2022-10-25T16:04:19.259Z,54.07
2022-10-25T16:06:48.020Z,53.64
2022-10-25T16:09:15.593Z,53.78
2022-10-25T16:11:47.811Z,54.17
2022-10-25T16:14:22.491Z,54.84
2022-10-25T16:16:50.640Z,54.19
2022-10-25T16:19:19.575Z,54.49
2022-10-25T16:21:47.893Z,54.24
2022-10-25T16:24:15.485Z,54.59
2022-10-25T16:26:45.844Z,54.76
2022-10-25T16:29:19.351Z,55.60
2022-10-25T16:31:47.167Z,54.45
2022-10-25T16:34:19.693Z,54.42
2022-10-25T16:36:48.898Z,54.68
2022-10-25T16:39:17.519Z,54.98
2022-10-25T16:41:46.327Z,55.18
2022-10-25T16:44:18.187Z,56.07
2022-10-25T16:46:46.411Z,55.18
2022-10-25T16:49:14.032Z,55.27
2022-10-25T16:51:41.975Z,55.92
2022-10-25T16:54:11.261Z,55.93
2022-10-25T16:56:39.666Z,55.86
2022-10-25T16:59:07.157Z,55.97
2022-10-25T17:01:36.004Z,55.88
2022-10-25T17:04:05.470Z,56.34
2022-10-25T17:06:41.740Z,56.13
2022-10-25T17:09:10.281Z,56.48
2022-10-25T17:11:38.183Z,56.13
2022-10-25T17:14:06.491Z,56.72
2022-10-25T17:16:35.682Z,56.81
2022-10-25T17:19:04.102Z,56.73
2022-10-25T17:21:33.441Z,56.82
2022-10-25T17:24:04.013Z,57.26
2022-10-25T17:26:31.598Z,56.91
2022-10-25T17:29:01.028Z,57.46
2022-10-25T17:31:28.993Z,57.02
2022-10-25T17:33:57.108Z,57.42
2022-10-25T17:36:26.085Z,57.38
2022-10-25T17:38:54.520Z,57.50
2022-10-25T17:41:22.251Z,57.83
2022-10-25T17:43:52.025Z,57.92
2022-10-25T17:46:26.033Z,57.86
2022-10-25T17:48:55.945Z,57.90
2022-10-25T17:51:23.892Z,58.20
2022-10-25T17:53:56.074Z,58.57
2022-10-25T17:56:25.674Z,58.36
2022-10-25T17:58:54.610Z,58.59
2022-10-25T18:01:25.592Z,59.03
2022-10-25T18:03:54.914Z,58.92
2022-10-25T18:06:25.166Z,58.65
2022-10-25T18:08:54.520Z,58.97
2022-10-25T18:11:23.984Z,58.97
2022-10-25T18:13:56.690Z,59.58
2022-10-25T18:16:27.888Z,58.90
2022-10-25T18:18:57.143Z,59.40
2022-10-25T18:21:25.143Z,59.24
2022-10-25T18:23:57.832Z,59.81
2022-10-25T18:26:25.873Z,59.40
2022-10-25T18:28:53.852Z,59.52
2022-10-25T18:31:21.623Z,59.67
2022-10-25T18:33:49.277Z,59.81
2022-10-25T18:36:19.576Z,59.99
2022-10-25T18:38:49.779Z,60.07
2022-10-25T18:41:28.444Z,60.52
2022-10-25T18:43:57.176Z,59.68
2022-10-25T18:46:27.513Z,59.82
2022-10-25T18:48:57.145Z,59.98
2022-10-25T18:51:26.959Z,60.21
2022-10-25T18:53:59.593Z,60.40
2022-10-25T18:56:28.781Z,60.30
2022-10-25T18:58:58.271Z,60.28
2022-10-25T19:01:32.891Z,60.57
2022-10-25T19:04:03.777Z,60.56
2022-10-25T19:06:32.698Z,61.02
2022-10-25T19:09:05.392Z,60.95
2022-10-25T19:11:34.693Z,61.09
2022-10-25T19:14:04.105Z,61.24
2022-10-25T19:16:32.025Z,61.64
2022-10-25T19:19:07.359Z,62.21
2022-10-25T19:21:36.343Z,61.55
2022-10-25T19:24:04.867Z,61.89
2022-10-25T19:26:32.924Z,62.10
2022-10-25T19:29:01.221Z,62.46
2022-10-25T19:31:29.733Z,62.36
2022-10-25T19:34:04.068Z,62.28
2022-10-25T19:36:32.417Z,62.46
2022-10-25T19:39:01.515Z,62.84
2022-10-25T19:41:33.867Z,62.58
2022-10-25T19:44:01.691Z,63.13
2022-10-25T19:46:29.358Z,63.26
2022-10-25T19:49:00.321Z,63.08
2022-10-25T19:51:28.790Z,63.27
2022-10-25T19:53:56.388Z,63.10
2022-10-25T19:56:24.316Z,63.26
2022-10-25T19:58:52.010Z,62.95
2022-10-25T20:01:23.697Z,63.14
2022-10-25T20:03:54.802Z,63.47
2022-10-25T20:06:25.954Z,63.49
2022-10-25T20:08:55.221Z,63.45
2022-10-25T20:11:24.126Z,63.57
2022-10-25T20:13:55.996Z,64.07
2022-10-25T20:16:24.241Z,63.81
2022-10-25T20:18:51.967Z,63.70
2022-10-25T20:21:27.685Z,63.91
2022-10-25T20:23:58.040Z,63.44
2022-10-25T20:26:28.340Z,63.61
2022-10-25T20:28:58.777Z,63.54
2022-10-25T20:31:28.759Z,63.60
2022-10-25T20:33:57.198Z,63.68
2022-10-25T20:36:25.602Z,63.33
2022-10-25T20:38:53.357Z,63.45
2022-10-25T20:41:23.409Z,63.65
2022-10-25T20:43:56.738Z,63.70
2022-10-25T20:46:26.369Z,63.79
2022-10-25T20:48:54.206Z,63.64
2022-10-25T20:59:20.764Z,64.82
2022-10-25T21:02:52.741Z,64.79
2022-10-25T21:06:57.068Z,64.95
2022-10-25T21:10:58.279Z,65.00
2022-10-25T21:23:20.880Z,65.63
2022-10-25T21:26:00.785Z,65.09
2022-10-25T21:28:32.585Z,65.39
2022-10-25T21:31:02.101Z,64.60
2022-10-25T21:33:29.692Z,64.65
2022-10-25T21:36:11.717Z,66.22
2022-10-25T21:38:39.588Z,64.88
2022-10-25T21:41:12.789Z,65.20
2022-10-25T21:43:46.001Z,65.53
2022-10-25T21:46:16.770Z,65.16
2022-10-25T21:48:47.289Z,65.12
2022-10-25T21:51:15.125Z,65.09
2022-10-25T21:53:42.683Z,65.30
2022-10-25T21:56:15.219Z,65.64
2022-10-25T21:58:45.096Z,65.99
2022-10-25T22:01:18.519Z,65.84
2022-10-25T22:03:46.198Z,65.50
2022-10-25T22:06:17.918Z,65.60
2022-10-25T22:08:46.145Z,65.37
2022-10-25T22:11:19.468Z,65.49
2022-10-25T22:13:47.752Z,65.39
2022-10-25T22:16:17.986Z,65.19
2022-10-25T22:18:51.616Z,65.45
2022-10-25T22:21:19.504Z,64.50
2022-10-25T22:23:47.264Z,64.66
2022-10-25T22:26:16.876Z,64.98
2022-10-25T22:28:44.535Z,64.52
2022-10-25T22:31:17.473Z,65.20
2022-10-25T22:33:45.476Z,64.70
2022-10-25T22:36:16.535Z,64.74
2022-10-25T22:38:45.279Z,64.18
2022-10-25T22:41:15.635Z,64.56
2022-10-25T22:43:43.838Z,64.20
2022-10-25T22:46:14.513Z,64.28
2022-10-25T22:48:43.785Z,63.75
2022-10-25T22:51:11.977Z,63.88
2022-10-25T22:53:40.382Z,63.76
2022-10-25T22:56:15.510Z,64.51
2022-10-25T22:58:49.491Z,63.98
2022-10-25T23:01:25.764Z,64.15
2022-10-25T23:03:55.466Z,63.88
2022-10-25T23:06:28.880Z,64.32
2022-10-25T23:08:58.321Z,63.96
2022-10-25T23:11:31.172Z,64.08
2022-10-25T23:13:59.513Z,63.83
2022-10-25T23:16:28.043Z,63.65
2022-10-25T23:18:56.226Z,63.49
2022-10-25T23:21:25.887Z,63.63
2022-10-25T23:23:54.325Z,63.49
2022-10-25T23:26:23.092Z,63.81
2022-10-25T23:28:51.097Z,64.06
2022-10-25T23:31:18.715Z,64.28
2022-10-25T23:33:50.948Z,64.27
2022-10-25T23:36:20.262Z,64.70
2022-10-25T23:38:49.487Z,64.28
2022-10-25T23:41:18.337Z,64.20
2022-10-25T23:43:46.018Z,63.59
2022-10-25T23:46:14.304Z,63.77
2022-10-25T23:48:42.123Z,63.82
2022-10-25T23:51:15.541Z,64.24
2022-10-25T23:53:43.662Z,63.77
2022-10-25T23:56:12.946Z,64.17
2022-10-25T23:58:40.812Z,64.13
